createdAt,value
2023-07-16T00:00:00.153Z,21.06
2023-07-16T00:05:00.194Z,20.94
2023-07-16T00:10:00.136Z,20.88
2023-07-16T00:15:00.153Z,20.81
2023-07-16T00:20:00.140Z,20.81
2023-07-16T00:25:00.186Z,20.69
2023-07-16T00:30:00.154Z,20.44
2023-07-16T00:35:00.096Z,20.31
2023-07-16T00:40:00.109Z,20.06
2023-07-16T00:45:00.152Z,19.94
2023-07-16T00:50:00.127Z,19.88
2023-07-16T00:55:00.105Z,19.75
2023-07-16T01:00:00.148Z,19.69
2023-07-16T01:05:00.252Z,19.69
2023-07-16T01:10:00.154Z,19.75
2023-07-16T01:15:00.117Z,19.69
2023-07-16T01:20:00.081Z,19.69
2023-07-16T01:25:00.135Z,19.69
2023-07-16T01:30:00.121Z,19.75
2023-07-16T01:35:00.150Z,19.75
2023-07-16T01:40:00.095Z,19.69
2023-07-16T01:45:00.129Z,19.69
2023-07-16T01:50:00.154Z,19.63
2023-07-16T01:55:00.120Z,19.69
2023-07-16T02:00:00.263Z,19.63
2023-07-16T02:05:00.217Z,19.56
2023-07-16T02:10:00.101Z,19.56
2023-07-16T02:15:00.110Z,19.56
2023-07-16T02:20:00.170Z,19.56
2023-07-16T02:25:00.138Z,19.63
2023-07-16T02:30:00.101Z,19.69
2023-07-16T02:35:00.135Z,19.75
2023-07-16T02:40:00.117Z,19.75
2023-07-16T02:45:00.132Z,19.81
2023-07-16T02:50:00.118Z,19.88
2023-07-16T02:55:00.106Z,19.88
2023-07-16T03:00:00.159Z,19.88
2023-07-16T03:05:00.247Z,19.88
2023-07-16T03:10:00.131Z,19.88
2023-07-16T03:15:00.202Z,19.94
2023-07-16T03:20:00.126Z,19.94
2023-07-16T03:25:00.135Z,19.88
2023-07-16T03:30:00.221Z,19.81
2023-07-16T03:35:00.120Z,19.75
2023-07-16T03:40:00.138Z,19.75
2023-07-16T03:45:00.144Z,19.69
2023-07-16T03:50:00.145Z,19.69
2023-07-16T03:55:00.185Z,19.69
2023-07-16T04:00:00.164Z,19.69
2023-07-16T04:05:00.209Z,19.75
2023-07-16T04:10:00.087Z,19.75
2023-07-16T04:15:00.103Z,19.75
2023-07-16T04:20:00.153Z,19.75
2023-07-16T04:25:00.175Z,19.88
2023-07-16T04:30:00.161Z,20.5
2023-07-16T04:35:00.153Z,21.94
2023-07-16T04:40:00.172Z,23.06
2023-07-16T04:45:00.189Z,23.69
2023-07-16T04:50:00.318Z,24
2023-07-16T04:55:00.090Z,22.69
2023-07-16T05:00:00.138Z,21.81
2023-07-16T05:05:00.157Z,21.31
2023-07-16T05:10:00.145Z,21.31
2023-07-16T05:15:00.153Z,22.5
2023-07-16T05:20:00.183Z,26.19
2023-07-16T05:25:00.122Z,27.31
2023-07-16T05:30:00.145Z,27.5
2023-07-16T05:35:02.287Z,25.88
2023-07-16T05:40:00.123Z,23.94
2023-07-16T05:45:00.127Z,23.19
2023-07-16T05:50:00.220Z,23.13
2023-07-16T05:55:00.106Z,22.69
2023-07-16T06:00:00.203Z,24
2023-07-16T06:05:00.167Z,27.44
2023-07-16T06:10:00.137Z,28.94
2023-07-16T06:15:00.122Z,30
2023-07-16T06:20:00.123Z,29.63
2023-07-16T06:25:00.154Z,28.81
2023-07-16T06:30:00.159Z,28.38
2023-07-16T06:35:00.099Z,28.5
2023-07-16T06:40:00.141Z,27.31
2023-07-16T06:45:00.551Z,27.19
2023-07-16T06:50:00.107Z,27.63
2023-07-16T06:55:00.090Z,28.13
2023-07-16T07:00:00.222Z,26.44
2023-07-16T07:05:00.133Z,27
2023-07-16T07:10:00.114Z,27.63
2023-07-16T07:15:00.158Z,26.5
2023-07-16T07:20:00.115Z,27.31
2023-07-16T07:25:00.136Z,27.88
2023-07-16T07:30:00.133Z,28.31
2023-07-16T07:35:02.187Z,28.81
2023-07-16T07:40:00.103Z,28.69
2023-07-16T07:45:00.170Z,27.69
2023-07-16T07:50:00.138Z,27.44
2023-07-16T07:55:00.123Z,28.5
2023-07-16T08:00:00.217Z,29
2023-07-16T08:05:01.550Z,28.69
2023-07-16T08:10:00.114Z,29.06
2023-07-16T08:15:00.146Z,27.56
2023-07-16T08:20:00.101Z,27.44
2023-07-16T08:25:00.140Z,27.94
2023-07-16T08:30:00.235Z,27.13
2023-07-16T08:35:00.111Z,27.44
2023-07-16T08:40:00.173Z,27.5
2023-07-16T08:45:00.156Z,27.75
2023-07-16T08:50:00.079Z,27.94
2023-07-16T08:55:00.109Z,28
2023-07-16T09:00:00.188Z,27.69
2023-07-16T09:05:00.149Z,28.13
2023-07-16T09:10:00.128Z,27.75
2023-07-16T09:15:00.139Z,28.19
2023-07-16T09:20:00.574Z,27.75
2023-07-16T09:25:00.568Z,27.81
2023-07-16T09:30:00.561Z,28.25
2023-07-16T09:35:00.562Z,28
2023-07-16T09:40:00.563Z,27.38
2023-07-16T09:45:00.587Z,27.06
2023-07-16T09:50:00.141Z,26.31
2023-07-16T09:55:00.571Z,26.88
2023-07-16T10:00:00.563Z,27.63
2023-07-16T10:05:00.572Z,27.75
2023-07-16T10:10:00.553Z,27.44
2023-07-16T10:15:00.544Z,27.56
2023-07-16T10:20:00.535Z,28.06
2023-07-16T10:25:00.553Z,27.75
2023-07-16T10:30:00.602Z,27.5
2023-07-16T10:35:00.555Z,27.94
2023-07-16T10:40:00.578Z,27.94
2023-07-16T10:45:00.603Z,27.75
2023-07-16T10:50:00.558Z,27.75
2023-07-16T10:55:00.567Z,27.5
2023-07-16T11:05:00.153Z,27.75
2023-07-16T11:10:00.119Z,28
2023-07-16T11:15:00.580Z,28
2023-07-16T11:20:00.707Z,27.94
2023-07-16T11:25:00.620Z,28.13
2023-07-16T11:30:00.569Z,27.88
2023-07-16T11:35:00.637Z,27.81
2023-07-16T11:40:00.544Z,28.06
2023-07-16T11:45:00.594Z,28.44
2023-07-16T11:50:00.178Z,28.56
2023-07-16T11:55:00.184Z,28.06
2023-07-16T12:00:00.214Z,28.25
2023-07-16T12:05:00.202Z,28.31
2023-07-16T12:10:00.145Z,28.25
2023-07-16T12:15:00.632Z,28.31
2023-07-16T12:20:00.535Z,27.94
2023-07-16T12:25:00.617Z,27.81
2023-07-16T12:30:00.572Z,27.81
2023-07-16T12:35:00.555Z,28
2023-07-16T12:40:00.729Z,27.88
2023-07-16T12:45:00.579Z,28.13
2023-07-16T12:50:00.543Z,28.31
2023-07-16T12:55:00.549Z,28.19
2023-07-16T13:00:00.580Z,28.19
2023-07-16T13:05:00.591Z,28.19
2023-07-16T13:10:12.623Z,28
2023-07-16T13:15:00.544Z,28.06
2023-07-16T13:20:00.577Z,27.81
2023-07-16T13:25:00.160Z,28
2023-07-16T13:30:00.135Z,27.88
2023-07-16T13:35:00.601Z,27.56
2023-07-16T13:40:00.153Z,27.81
2023-07-16T13:45:00.598Z,27.63
2023-07-16T13:50:00.612Z,27.31
2023-07-16T13:55:00.277Z,27.44
2023-07-16T14:00:00.552Z,27.5
2023-07-16T14:05:00.594Z,27.75
2023-07-16T14:10:00.549Z,27.75
2023-07-16T14:15:00.798Z,27.44
2023-07-16T14:20:00.611Z,27.25
2023-07-16T14:25:00.685Z,27.44
2023-07-16T14:30:06.554Z,27.31
2023-07-16T14:35:00.567Z,27
2023-07-16T14:40:00.154Z,27.06
2023-07-16T14:45:00.594Z,27.31
2023-07-16T14:50:00.212Z,27.38
2023-07-16T14:55:00.132Z,27.31
2023-07-16T15:00:00.184Z,27.25
2023-07-16T15:05:00.173Z,27.06
2023-07-16T15:10:00.158Z,26.88
2023-07-16T15:15:00.227Z,27.13
2023-07-16T15:20:00.172Z,27.31
2023-07-16T15:25:00.138Z,27.25
2023-07-16T15:30:00.138Z,27.13
2023-07-16T15:35:00.147Z,27.19
2023-07-16T15:40:00.222Z,27.19
2023-07-16T15:45:00.148Z,27.19
2023-07-16T15:50:00.131Z,27.31
2023-07-16T15:55:00.170Z,27.25
2023-07-16T16:00:00.148Z,27.06
2023-07-16T16:05:00.155Z,27
2023-07-16T16:10:00.188Z,27
2023-07-16T16:15:00.137Z,27.19
2023-07-16T16:20:00.170Z,27.13
2023-07-16T16:25:00.293Z,27.19
2023-07-16T16:30:00.130Z,27.19
2023-07-16T16:35:00.149Z,27.13
2023-07-16T16:40:00.172Z,27
2023-07-16T16:45:00.226Z,27
2023-07-16T16:50:00.154Z,26.81
2023-07-16T16:55:00.239Z,26.81
2023-07-16T17:00:00.232Z,26.88
2023-07-16T17:05:00.210Z,26.81
2023-07-16T17:10:00.164Z,26.81
2023-07-16T17:15:00.149Z,26.69
2023-07-16T17:20:00.112Z,26.69
2023-07-16T17:25:00.166Z,26.56
2023-07-16T17:30:00.263Z,26.5
2023-07-16T17:35:00.116Z,26.56
2023-07-16T17:40:00.226Z,26.38
2023-07-16T17:45:00.148Z,26.25
2023-07-16T17:50:00.282Z,26.13
2023-07-16T17:55:00.179Z,26
2023-07-16T18:00:09.040Z,25.88
2023-07-16T18:05:00.222Z,25.75
2023-07-16T18:10:00.167Z,25.63
2023-07-16T18:15:00.128Z,25.56
2023-07-16T18:20:00.149Z,25.44
2023-07-16T18:25:00.163Z,25.31
2023-07-16T18:30:00.135Z,25.13
2023-07-16T18:35:00.138Z,25
2023-07-16T18:40:00.219Z,24.81
2023-07-16T18:45:00.213Z,24.69
2023-07-16T18:50:00.199Z,24.5
2023-07-16T18:55:00.142Z,24.44
2023-07-16T19:00:00.287Z,24.31
2023-07-16T19:05:00.150Z,24.19
2023-07-16T19:10:00.125Z,24
2023-07-16T19:15:00.113Z,23.88
2023-07-16T19:20:00.188Z,23.81
2023-07-16T19:25:00.212Z,23.63
2023-07-16T19:30:00.181Z,23.5
2023-07-16T19:35:00.152Z,23.44
2023-07-16T19:40:00.138Z,23.19
2023-07-16T19:45:00.142Z,23.13
2023-07-16T19:50:00.111Z,23.06
2023-07-16T19:55:00.110Z,22.81
2023-07-16T20:00:00.201Z,22.69
2023-07-16T20:05:00.154Z,22.56
2023-07-16T20:15:00.120Z,22.31
2023-07-16T20:20:00.117Z,22.13
2023-07-16T20:25:00.144Z,22
2023-07-16T20:30:00.221Z,22.13
2023-07-16T20:35:00.107Z,22.06
2023-07-16T20:40:00.167Z,22
2023-07-16T20:45:00.127Z,21.94
2023-07-16T20:50:00.129Z,21.69
2023-07-16T20:55:01.697Z,21.5
2023-07-16T21:00:00.214Z,21.38
2023-07-16T21:05:00.180Z,21.31
2023-07-16T21:10:00.119Z,21.38
2023-07-16T21:15:00.132Z,21.38
2023-07-16T21:20:00.165Z,21.38
2023-07-16T21:25:00.173Z,21.31
2023-07-16T21:30:00.210Z,21.31
2023-07-16T21:35:00.151Z,21.31
2023-07-16T21:40:00.124Z,21.38
2023-07-16T21:45:00.194Z,21.31
2023-07-16T21:50:00.121Z,21.19
2023-07-16T21:55:00.145Z,21.06
2023-07-16T22:00:00.259Z,20.88
2023-07-16T22:05:00.181Z,20.88
2023-07-16T22:10:00.130Z,20.69
2023-07-16T22:15:00.097Z,20.63
2023-07-16T22:20:00.108Z,20.69
2023-07-16T22:25:00.154Z,20.88
2023-07-16T22:30:00.120Z,20.88
2023-07-16T22:35:00.127Z,20.81
2023-07-16T22:40:00.160Z,20.75
2023-07-16T22:45:00.111Z,20.63
2023-07-16T22:50:00.128Z,20.5
2023-07-16T22:55:00.096Z,20.44
2023-07-16T23:00:00.154Z,20.31
2023-07-16T23:05:00.122Z,20.31
2023-07-16T23:10:00.140Z,20.19
2023-07-16T23:15:00.157Z,20.19
2023-07-16T23:20:00.139Z,20.13
2023-07-16T23:25:00.134Z,20.19
2023-07-16T23:30:00.137Z,20.19
2023-07-16T23:35:00.173Z,19.81
2023-07-16T23:40:00.129Z,19.75
2023-07-16T23:45:00.108Z,20.06
2023-07-16T23:50:00.113Z,20.06
2023-07-16T23:55:00.111Z,20
